createdAt,value
2022-08-05T00:00:20.350Z,99.90
2022-08-05T00:02:50.807Z,99.90
2022-08-05T00:05:27.131Z,99.90
2022-08-05T00:08:34.199Z,99.90
2022-08-05T00:11:00.952Z,99.90
2022-08-05T00:13:38.715Z,99.90
2022-08-05T00:16:12.943Z,99.90
2022-08-05T00:18:46.739Z,99.90
2022-08-05T00:21:17.665Z,99.90
2022-08-05T00:23:53.535Z,99.90
2022-08-05T00:26:32.623Z,99.90
2022-08-05T00:29:00.102Z,99.90
2022-08-05T00:31:54.309Z,99.90
2022-08-05T00:34:54.741Z,99.90
2022-08-05T00:37:09.902Z,99.90
2022-08-05T00:39:57.365Z,99.90
2022-08-05T00:42:34.328Z,99.90
2022-08-05T00:45:02.858Z,99.90
2022-08-05T00:47:53.208Z,99.90
2022-08-05T00:50:18.044Z,99.90
2022-08-05T00:52:46.782Z,99.90
2022-08-05T00:55:14.942Z,99.90
2022-08-05T00:57:58.337Z,99.90
2022-08-05T01:00:28.052Z,99.90
2022-08-05T01:02:59.680Z,99.90
2022-08-05T01:05:27.977Z,99.90
2022-08-05T01:08:30.676Z,99.90
2022-08-05T01:10:56.811Z,99.90
2022-08-05T01:13:58.847Z,99.90
2022-08-05T01:16:49.268Z,99.90
2022-08-05T01:19:36.775Z,99.90
2022-08-05T01:22:34.090Z,99.90
2022-08-05T01:25:40.220Z,99.90
2022-08-05T01:28:28.211Z,99.90
2022-08-05T01:31:15.440Z,99.90
2022-08-05T01:33:56.890Z,99.90
2022-08-05T01:36:30.368Z,99.90
2022-08-05T01:39:01.043Z,99.90
2022-08-05T01:41:31.091Z,99.90
2022-08-05T01:44:02.080Z,99.90
2022-08-05T01:46:42.442Z,99.90
2022-08-05T01:49:23.828Z,99.90
2022-08-05T01:51:58.377Z,99.90
2022-08-05T01:54:34.207Z,99.90
2022-08-05T01:58:10.297Z,99.90
2022-08-05T02:00:12.018Z,99.90
2022-08-05T02:03:16.404Z,99.90
2022-08-05T02:05:57.880Z,99.90
2022-08-05T02:08:31.326Z,99.90
2022-08-05T02:11:33.146Z,99.90
2022-08-05T02:14:14.739Z,99.90
2022-08-05T02:17:16.743Z,99.90
2022-08-05T02:20:01.941Z,99.90
2022-08-05T02:22:37.524Z,99.90
2022-08-05T02:25:12.547Z,99.90
2022-08-05T02:27:59.224Z,99.90
2022-08-05T02:30:34.471Z,99.90
2022-08-05T02:33:04.979Z,99.90
2022-08-05T02:35:43.767Z,99.90
2022-08-05T02:38:19.997Z,99.90
2022-08-05T02:40:54.702Z,99.90
2022-08-05T02:43:24.943Z,99.90
2022-08-05T02:45:54.081Z,99.90
2022-08-05T02:48:29.069Z,99.90
2022-08-05T02:51:01.116Z,99.90
2022-08-05T02:53:35.886Z,99.90
2022-08-05T02:56:16.111Z,99.90
2022-08-05T02:58:51.427Z,99.90
2022-08-05T03:01:28.435Z,99.90
2022-08-05T03:04:08.919Z,99.90
2022-08-05T03:06:54.853Z,99.90
2022-08-05T03:09:36.246Z,99.90
2022-08-05T03:12:06.004Z,99.90
2022-08-05T03:14:33.607Z,99.90
2022-08-05T03:17:01.052Z,99.90
2022-08-05T03:19:33.874Z,99.90
2022-08-05T03:22:04.898Z,99.90
2022-08-05T03:24:47.181Z,99.90
2022-08-05T03:27:19.092Z,99.90
2022-08-05T03:30:08.152Z,99.90
2022-08-05T03:32:34.759Z,99.90
2022-08-05T03:35:04.637Z,99.90
2022-08-05T03:37:46.417Z,99.90
2022-08-05T03:40:15.414Z,99.90
2022-08-05T03:42:52.886Z,99.90
2022-08-05T03:45:23.244Z,99.90
2022-08-05T03:47:51.701Z,99.90
2022-08-05T03:50:25.802Z,99.90
2022-08-05T03:55:06.709Z,99.90
2022-08-05T03:56:10.784Z,99.90
2022-08-05T03:58:44.774Z,99.90
2022-08-05T04:01:14.934Z,99.90
2022-08-05T04:04:05.434Z,99.90
2022-08-05T04:06:35.276Z,99.90
2022-08-05T04:09:06.389Z,99.90
2022-08-05T04:11:47.242Z,99.90
2022-08-05T04:14:18.191Z,99.90
2022-08-05T04:16:46.222Z,99.90
2022-08-05T04:19:14.962Z,99.90
2022-08-05T04:22:09.703Z,99.90
2022-08-05T04:24:32.548Z,99.90
2022-08-05T04:27:00.070Z,99.90
2022-08-05T04:29:28.483Z,99.90
2022-08-05T04:31:57.457Z,99.90
2022-08-05T04:34:32.637Z,99.90
2022-08-05T04:37:03.376Z,99.90
2022-08-05T04:39:32.151Z,99.90
2022-08-05T04:42:00.409Z,99.90
2022-08-05T04:44:30.610Z,97.30
2022-08-05T04:46:59.636Z,96.40
2022-08-05T04:49:39.118Z,91.80
2022-08-05T04:52:16.080Z,92.70
2022-08-05T04:54:43.745Z,93.50
2022-08-05T04:57:11.291Z,91.80
2022-08-05T04:59:40.704Z,83.10
2022-08-05T05:02:41.966Z,75.30
2022-08-05T05:05:02.841Z,69.50
2022-08-05T05:07:32.298Z,60.50
2022-08-05T05:10:04.531Z,59.70
2022-08-05T05:12:32.631Z,59.60
2022-08-05T05:15:00.106Z,56.60
2022-08-05T05:17:56.632Z,58.30
2022-08-05T05:20:28.691Z,52.80
2022-08-05T05:22:58.347Z,54.40
2022-08-05T05:25:40.585Z,47.90
2022-08-05T05:28:10.392Z,48.00
2022-08-05T05:30:39.101Z,44.40
2022-08-05T05:33:16.439Z,39.50
2022-08-05T05:35:47.698Z,37.50
2022-08-05T05:38:22.628Z,34.50
2022-08-05T05:40:58.173Z,32.20
2022-08-05T05:43:56.488Z,31.90
2022-08-05T05:46:15.915Z,27.10
2022-08-05T05:48:48.306Z,23.30
2022-08-05T05:51:20.897Z,17.00
2022-08-05T05:53:57.227Z,19.10
2022-08-05T05:56:32.618Z,20.90
2022-08-05T05:59:06.997Z,23.60
2022-08-05T06:01:37.980Z,18.80
2022-08-05T06:04:11.954Z,15.00
2022-08-05T06:06:47.788Z,12.90
2022-08-05T06:09:25.646Z,1.00
2022-08-05T06:12:00.034Z,1.00
2022-08-05T06:14:31.014Z,1.00
2022-08-05T06:16:59.267Z,1.00
2022-08-05T06:19:35.088Z,1.00
2022-08-05T06:22:04.477Z,1.00
2022-08-05T06:24:42.205Z,1.00
2022-08-05T06:28:09.053Z,1.00
2022-08-05T06:30:20.909Z,1.00
2022-08-05T06:32:50.800Z,1.00
2022-08-05T06:36:03.715Z,1.00
2022-08-05T06:38:10.113Z,1.00
2022-08-05T06:40:44.678Z,1.00
2022-08-05T06:43:58.622Z,1.00
2022-08-05T06:46:06.608Z,1.00
2022-08-05T06:48:55.338Z,1.00
2022-08-05T06:51:30.050Z,1.00
2022-08-05T06:54:00.140Z,99.90
2022-08-05T06:56:34.861Z,99.90
2022-08-05T06:59:09.415Z,99.90
2022-08-05T07:01:40.482Z,20.00
2022-08-05T07:04:09.373Z,1.00
2022-08-05T07:06:37.456Z,1.00
2022-08-05T07:09:05.326Z,1.00
2022-08-05T07:11:37.078Z,1.00
2022-08-05T07:14:29.449Z,1.00
2022-08-05T07:18:00.226Z,1.00
2022-08-05T07:22:38.836Z,1.00
2022-08-05T07:25:53.904Z,99.90
2022-08-05T07:28:03.813Z,99.90
2022-08-05T07:30:39.094Z,1.00
2022-08-05T07:33:15.708Z,99.90
2022-08-05T07:36:03.456Z,99.90
2022-08-05T07:38:42.655Z,99.90
2022-08-05T07:42:12.976Z,99.90
2022-08-05T07:44:12.136Z,99.90
2022-08-05T07:46:48.505Z,99.90
2022-08-05T07:49:18.173Z,1.00
2022-08-05T07:51:53.841Z,99.90
2022-08-05T07:54:30.203Z,1.00
2022-08-05T07:57:01.950Z,99.90
2022-08-05T07:59:46.920Z,99.90
2022-08-05T08:02:17.840Z,1.00
2022-08-05T08:04:47.646Z,1.00
2022-08-05T08:07:17.892Z,99.90
2022-08-05T08:09:47.153Z,99.90
2022-08-05T08:12:35.103Z,22.50
2022-08-05T08:15:04.734Z,99.90
2022-08-05T08:17:37.490Z,1.00
2022-08-05T08:20:42.778Z,1.00
2022-08-05T08:22:56.162Z,99.90
2022-08-05T08:25:26.771Z,99.90
2022-08-05T08:28:04.090Z,99.90
2022-08-05T08:30:40.841Z,1.00
2022-08-05T08:33:15.811Z,1.00
2022-08-05T08:35:52.929Z,1.00
2022-08-05T08:38:35.574Z,99.90
2022-08-05T08:41:10.277Z,99.90
2022-08-05T08:45:21.241Z,99.90
2022-08-05T08:46:32.459Z,99.90
2022-08-05T08:50:05.720Z,99.90
2022-08-05T08:52:13.102Z,99.90
2022-08-05T08:54:43.091Z,99.90
2022-08-05T08:57:13.730Z,67.40
2022-08-05T08:59:47.240Z,99.90
2022-08-05T09:02:19.375Z,99.90
2022-08-05T09:05:16.858Z,99.90
2022-08-05T09:07:40.077Z,94.90
2022-08-05T09:10:27.650Z,1.00
2022-08-05T09:12:57.111Z,1.00
2022-08-05T09:15:32.474Z,99.90
2022-08-05T09:18:08.988Z,99.90
2022-08-05T09:20:42.032Z,99.90
2022-08-05T09:23:18.531Z,99.90
2022-08-05T09:26:01.345Z,99.90
2022-08-05T09:28:33.834Z,77.90
2022-08-05T09:31:22.252Z,93.90
2022-08-05T09:34:01.707Z,58.80
2022-08-05T09:36:56.352Z,16.60
2022-08-05T09:39:41.990Z,1.00
2022-08-05T09:42:28.099Z,1.00
2022-08-05T09:45:17.376Z,1.00
2022-08-05T09:47:54.990Z,1.00
2022-08-05T09:50:45.164Z,1.00
2022-08-05T09:53:22.792Z,1.00
2022-08-05T09:56:03.729Z,99.90
2022-08-05T09:58:32.590Z,99.90
2022-08-05T10:01:13.581Z,99.90
2022-08-05T10:04:00.269Z,99.90
2022-08-05T10:06:28.473Z,99.90
2022-08-05T10:09:09.644Z,95.70
2022-08-05T10:11:52.904Z,95.00
2022-08-05T10:14:32.226Z,99.90
2022-08-05T10:17:38.118Z,99.90
2022-08-05T10:20:09.632Z,99.90
2022-08-05T10:22:42.809Z,99.90
2022-08-05T10:25:16.625Z,58.60
2022-08-05T10:28:12.679Z,13.70
2022-08-05T10:31:20.102Z,1.00
2022-08-05T10:33:29.013Z,4.50
2022-08-05T10:35:59.285Z,2.00
2022-08-05T10:38:33.024Z,2.40
2022-08-05T10:41:23.897Z,1.00
2022-08-05T10:43:54.440Z,1.00
2022-08-05T10:46:23.767Z,1.00
2022-08-05T10:49:10.493Z,1.00
2022-08-05T10:51:59.893Z,1.00
2022-08-05T10:55:05.156Z,1.00
2022-08-05T10:57:34.247Z,1.00
2022-08-05T11:00:19.605Z,1.00
2022-08-05T11:03:23.148Z,1.00
2022-08-05T11:06:08.515Z,1.00
2022-08-05T11:09:16.358Z,99.90
2022-08-05T11:11:52.544Z,99.90
2022-08-05T11:14:57.772Z,99.90
2022-08-05T11:17:56.852Z,99.90
2022-08-05T11:20:41.731Z,99.90
2022-08-05T11:24:03.228Z,99.90
2022-08-05T11:26:28.311Z,99.90
2022-08-05T11:29:11.600Z,99.90
2022-08-05T11:31:58.242Z,99.90
2022-08-05T11:34:39.833Z,99.90
2022-08-05T11:38:29.747Z,99.90
2022-08-05T11:39:55.505Z,99.90
2022-08-05T11:42:37.951Z,99.90
2022-08-05T11:45:23.291Z,99.90
2022-08-05T11:47:57.691Z,99.90
2022-08-05T11:50:26.627Z,99.90
2022-08-05T11:52:57.937Z,99.90
2022-08-05T11:55:32.377Z,99.90
2022-08-05T11:58:10.289Z,99.90
2022-08-05T12:00:41.381Z,99.90
2022-08-05T12:03:31.887Z,99.90
2022-08-05T12:06:05.859Z,99.90
2022-08-05T12:08:51.012Z,99.90
2022-08-05T12:11:28.417Z,99.90
2022-08-05T12:14:08.673Z,99.90
2022-08-05T12:16:40.329Z,99.90
2022-08-05T12:20:26.766Z,99.90
2022-08-05T12:22:01.051Z,99.90
2022-08-05T12:24:30.141Z,99.90
2022-08-05T12:26:58.378Z,99.90
2022-08-05T12:29:27.320Z,99.90
2022-08-05T12:32:01.707Z,99.90
2022-08-05T12:34:37.090Z,99.90
2022-08-05T12:37:17.098Z,99.90
2022-08-05T12:40:03.573Z,99.90
2022-08-05T12:42:40.194Z,37.40
2022-08-05T12:45:10.349Z,1.00
2022-08-05T12:48:01.056Z,99.90
2022-08-05T12:50:26.502Z,1.00
2022-08-05T12:53:00.432Z,99.90
2022-08-05T12:55:32.481Z,1.00
2022-08-05T12:58:48.268Z,99.90
2022-08-05T13:02:03.019Z,1.00
2022-08-05T13:03:41.737Z,1.00
2022-08-05T13:06:20.002Z,99.90
2022-08-05T13:08:51.469Z,1.00
2022-08-05T13:12:01.748Z,99.90
2022-08-05T13:14:36.542Z,1.00
2022-08-05T13:17:14.701Z,1.00
2022-08-05T13:19:57.629Z,99.90
2022-08-05T13:22:29.160Z,99.90
2022-08-05T13:25:00.745Z,99.90
2022-08-05T13:27:39.303Z,62.20
2022-08-05T13:30:33.896Z,1.00
2022-08-05T13:33:01.540Z,1.00
2022-08-05T13:35:43.365Z,99.90
2022-08-05T13:38:28.489Z,99.90
2022-08-05T13:41:01.713Z,99.90
2022-08-05T13:43:44.495Z,99.90
2022-08-05T13:46:30.816Z,99.90
2022-08-05T13:49:06.067Z,99.90
2022-08-05T13:51:41.563Z,99.90
2022-08-05T13:54:11.731Z,99.90
2022-08-05T13:56:50.867Z,99.90
2022-08-05T13:59:24.846Z,99.90
2022-08-05T14:01:59.456Z,99.90
2022-08-05T14:04:51.866Z,99.90
2022-08-05T14:08:00.058Z,1.00
2022-08-05T14:10:28.853Z,99.90
2022-08-05T14:12:59.758Z,1.00
2022-08-05T14:16:08.274Z,99.90
2022-08-05T14:18:17.789Z,97.10
2022-08-05T14:20:54.377Z,1.00
2022-08-05T14:23:25.762Z,99.90
2022-08-05T14:25:58.616Z,1.00
2022-08-05T14:28:28.690Z,1.00
2022-08-05T14:31:00.869Z,99.90
2022-08-05T14:33:56.777Z,99.90
2022-08-05T14:36:21.270Z,99.90
2022-08-05T14:38:50.677Z,99.90
2022-08-05T14:41:18.929Z,99.90
2022-08-05T14:43:57.673Z,99.90
2022-08-05T14:46:35.029Z,99.90
2022-08-05T14:49:07.417Z,99.90
2022-08-05T14:51:42.808Z,99.90
2022-08-05T14:54:28.159Z,99.90
2022-08-05T14:56:58.260Z,99.90
2022-08-05T14:59:29.405Z,99.90
2022-08-05T15:02:14.819Z,99.90
2022-08-05T15:04:44.959Z,99.90
2022-08-05T15:08:06.315Z,99.90
2022-08-05T15:10:03.288Z,99.90
2022-08-05T15:12:41.097Z,99.90
2022-08-05T15:15:18.577Z,99.90
2022-08-05T15:18:06.186Z,99.90
2022-08-05T15:20:34.004Z,99.90
2022-08-05T15:23:06.152Z,99.90
2022-08-05T15:25:51.965Z,99.90
2022-08-05T15:28:23.039Z,99.90
2022-08-05T15:30:55.410Z,99.90
2022-08-05T15:34:05.345Z,99.90
2022-08-05T15:36:17.746Z,99.90
2022-08-05T15:40:41.174Z,99.90
2022-08-05T15:41:57.533Z,99.90
2022-08-05T15:44:29.947Z,99.90
2022-08-05T15:46:59.399Z,99.90
2022-08-05T15:49:48.094Z,99.90
2022-08-05T15:52:29.111Z,99.90
2022-08-05T15:55:03.785Z,99.90
2022-08-05T15:57:33.164Z,99.90
2022-08-05T16:00:06.582Z,99.90
2022-08-05T16:02:34.275Z,99.90
2022-08-05T16:05:02.001Z,99.90
2022-08-05T16:07:29.789Z,99.90
2022-08-05T16:09:57.376Z,99.90
2022-08-05T16:12:25.107Z,99.90
2022-08-05T16:14:52.866Z,99.90
2022-08-05T16:17:20.400Z,99.90
2022-08-05T16:20:03.255Z,99.90
2022-08-05T16:22:34.222Z,99.90
2022-08-05T16:25:08.158Z,99.90
2022-08-05T16:27:59.952Z,99.90
2022-08-05T16:30:28.792Z,99.90
2022-08-05T16:32:58.061Z,99.90
2022-08-05T16:35:28.617Z,99.90
2022-08-05T16:38:16.265Z,99.90
2022-08-05T16:40:55.457Z,99.90
2022-08-05T16:43:28.908Z,99.90
2022-08-05T16:46:06.977Z,99.90
2022-08-05T16:48:44.123Z,99.90
2022-08-05T16:51:11.685Z,99.90
2022-08-05T16:54:03.946Z,99.90
2022-08-05T16:56:30.089Z,99.90
2022-08-05T16:58:58.780Z,99.90
2022-08-05T17:01:28.216Z,99.90
2022-08-05T17:04:15.543Z,99.90
2022-08-05T17:06:46.151Z,99.90
2022-08-05T17:09:21.447Z,99.90
2022-08-05T17:11:55.921Z,99.90
2022-08-05T17:14:36.756Z,99.90
2022-08-05T17:17:14.289Z,99.90
2022-08-05T17:19:45.320Z,99.90
2022-08-05T17:22:17.732Z,99.90
2022-08-05T17:24:57.781Z,99.90
2022-08-05T17:27:33.607Z,99.90
2022-08-05T17:30:12.050Z,99.90
2022-08-05T17:32:46.467Z,99.90
2022-08-05T17:35:15.515Z,99.90
2022-08-05T17:37:48.381Z,99.90
2022-08-05T17:40:17.638Z,1.00
2022-08-05T17:42:50.597Z,1.00
2022-08-05T17:45:22.156Z,62.40
2022-08-05T17:47:55.697Z,99.90
2022-08-05T17:50:30.316Z,1.00
2022-08-05T17:53:00.468Z,99.90
2022-08-05T17:55:38.389Z,99.90
2022-08-05T17:58:12.443Z,1.60
2022-08-05T18:00:45.366Z,99.90
2022-08-05T18:03:55.870Z,99.90
2022-08-05T18:06:12.034Z,99.90
2022-08-05T18:08:52.395Z,46.60
2022-08-05T18:11:24.419Z,1.00
2022-08-05T18:14:06.808Z,99.90
2022-08-05T18:16:51.028Z,1.00
2022-08-05T18:19:22.891Z,1.00
2022-08-05T18:22:07.692Z,99.90
2022-08-05T18:24:39.631Z,99.90
2022-08-05T18:27:18.555Z,99.90
2022-08-05T18:29:53.550Z,99.90
2022-08-05T18:32:28.269Z,1.00
2022-08-05T18:34:56.604Z,99.90
2022-08-05T18:37:34.458Z,99.90
2022-08-05T18:41:52.665Z,99.90
2022-08-05T18:42:57.060Z,1.00
2022-08-05T18:45:24.964Z,99.90
2022-08-05T18:48:11.275Z,99.90
2022-08-05T18:51:01.796Z,99.90
2022-08-05T18:53:50.169Z,99.90
2022-08-05T18:56:21.818Z,96.60
2022-08-05T18:58:54.733Z,99.90
2022-08-05T19:01:33.272Z,99.90
2022-08-05T19:04:12.376Z,99.90
2022-08-05T19:06:44.822Z,99.90
2022-08-05T19:09:13.043Z,1.00
2022-08-05T19:12:00.945Z,50.10
2022-08-05T19:14:59.391Z,99.90
2022-08-05T19:17:16.656Z,1.00
2022-08-05T19:19:47.036Z,1.00
2022-08-05T19:22:17.736Z,99.90
2022-08-05T19:24:56.057Z,1.00
2022-08-05T19:27:30.168Z,1.00
2022-08-05T19:29:58.536Z,99.90
2022-08-05T19:32:27.841Z,99.90
2022-08-05T19:34:57.823Z,99.90
2022-08-05T19:37:29.923Z,99.90
2022-08-05T19:40:15.094Z,1.00
2022-08-05T19:42:42.754Z,1.00
2022-08-05T19:45:30.565Z,1.00
2022-08-05T19:48:04.531Z,99.90
2022-08-05T19:50:33.021Z,99.90
2022-08-05T19:53:10.244Z,99.90
2022-08-05T19:56:15.440Z,99.90
2022-08-05T19:58:29.103Z,99.90
2022-08-05T20:00:58.120Z,99.90
2022-08-05T20:03:26.506Z,1.00
2022-08-05T20:05:56.680Z,1.00
2022-08-05T20:08:25.416Z,1.00
2022-08-05T20:10:54.259Z,1.00
2022-08-05T20:13:25.826Z,99.90
2022-08-05T20:15:58.020Z,1.00
2022-08-05T20:18:32.825Z,1.00
2022-08-05T20:21:05.067Z,1.00
2022-08-05T20:23:39.269Z,1.00
2022-08-05T20:26:17.700Z,1.00
2022-08-05T20:28:48.875Z,1.00
2022-08-05T20:31:17.734Z,1.00
2022-08-05T20:33:49.612Z,1.00
2022-08-05T20:36:17.974Z,1.00
2022-08-05T20:38:54.265Z,1.00
2022-08-05T20:41:43.120Z,1.70
2022-08-05T20:44:18.413Z,4.40
2022-08-05T20:47:05.358Z,8.10
2022-08-05T20:49:39.466Z,17.60
2022-08-05T20:52:08.778Z,14.00
2022-08-05T20:54:55.065Z,16.70
2022-08-05T20:57:43.894Z,21.60
2022-08-05T21:00:41.642Z,25.90
2022-08-05T21:03:08.110Z,39.50
2022-08-05T21:05:47.955Z,52.00
2022-08-05T21:08:26.890Z,50.70
2022-08-05T21:12:00.719Z,56.40
2022-08-05T21:14:01.427Z,58.30
2022-08-05T21:16:30.788Z,75.90
2022-08-05T21:19:00.851Z,77.70
2022-08-05T21:21:43.943Z,92.40
2022-08-05T21:24:19.526Z,94.70
2022-08-05T21:26:53.309Z,93.00
2022-08-05T21:29:26.430Z,93.20
2022-08-05T21:31:59.420Z,97.90
2022-08-05T21:34:26.914Z,94.40
2022-08-05T21:36:55.784Z,95.90
2022-08-05T21:39:26.769Z,99.60
2022-08-05T21:42:01.817Z,99.90
2022-08-05T21:44:31.830Z,99.90
2022-08-05T21:47:00.070Z,99.90
2022-08-05T21:50:00.131Z,99.90
2022-08-05T21:52:27.632Z,99.90
2022-08-05T21:55:06.458Z,99.90
2022-08-05T21:57:35.720Z,99.90
2022-08-05T22:00:06.943Z,99.90
2022-08-05T22:02:39.092Z,99.90
2022-08-05T22:05:08.922Z,99.90
2022-08-05T22:07:39.801Z,99.70
2022-08-05T22:10:25.533Z,99.90
2022-08-05T22:12:59.121Z,99.90
2022-08-05T22:16:01.061Z,99.90
2022-08-05T22:18:24.900Z,99.90
2022-08-05T22:20:53.852Z,99.90
2022-08-05T22:24:02.509Z,99.90
2022-08-05T22:26:49.727Z,99.90
2022-08-05T22:29:26.823Z,99.90
2022-08-05T22:32:02.555Z,99.90
2022-08-05T22:34:31.905Z,99.90
2022-08-05T22:37:00.022Z,99.90
2022-08-05T22:39:33.277Z,99.90
2022-08-05T22:42:10.314Z,99.90
2022-08-05T22:44:42.764Z,99.90
2022-08-05T22:47:29.237Z,99.90
2022-08-05T22:50:21.041Z,99.90
2022-08-05T22:52:48.689Z,99.90
2022-08-05T22:55:19.011Z,99.90
2022-08-05T22:57:49.279Z,99.90
2022-08-05T23:00:20.605Z,99.90
2022-08-05T23:02:49.800Z,99.90
2022-08-05T23:05:19.182Z,99.90
2022-08-05T23:07:51.242Z,99.90
2022-08-05T23:10:20.644Z,99.90
2022-08-05T23:12:55.060Z,99.90
2022-08-05T23:15:29.933Z,99.90
2022-08-05T23:18:03.282Z,99.90
2022-08-05T23:20:37.367Z,99.90
2022-08-05T23:23:05.915Z,99.90
2022-08-05T23:25:51.364Z,99.90
2022-08-05T23:28:22.245Z,99.90
2022-08-05T23:30:53.077Z,99.90
2022-08-05T23:33:26.335Z,99.90
2022-08-05T23:36:10.614Z,99.90
2022-08-05T23:38:38.620Z,99.90
2022-08-05T23:41:06.192Z,99.90
2022-08-05T23:43:37.220Z,99.90
2022-08-05T23:46:22.319Z,99.90
2022-08-05T23:48:59.912Z,99.90
2022-08-05T23:51:57.165Z,99.90
2022-08-05T23:54:36.477Z,99.90
2022-08-05T23:57:07.144Z,99.90
